createdAt,value
2023-03-30T00:01:32.594Z,6.37
2023-03-30T00:03:39.198Z,5.27
2023-03-30T00:05:43.090Z,3.70
2023-03-30T00:07:45.964Z,6.50
2023-03-30T00:09:48.866Z,6.20
2023-03-30T00:11:51.677Z,4.47
2023-03-30T00:13:54.594Z,5.47
2023-03-30T00:15:57.552Z,5.80
2023-03-30T00:18:01.720Z,5.57
2023-03-30T00:20:11.863Z,6.13
2023-03-30T00:22:14.904Z,4.90
2023-03-30T00:24:17.665Z,5.50
2023-03-30T00:26:20.536Z,4.30
2023-03-30T00:28:23.622Z,4.10
2023-03-30T00:30:26.871Z,4.40
2023-03-30T00:32:29.818Z,4.30
2023-03-30T00:34:32.602Z,4.03
2023-03-30T00:36:37.225Z,3.53
2023-03-30T00:38:40.416Z,5.90
2023-03-30T00:40:43.234Z,3.27
2023-03-30T00:42:46.281Z,3.63
2023-03-30T00:45:19.295Z,5.57
2023-03-30T00:47:23.248Z,3.30
2023-03-30T00:49:26.182Z,5.27
2023-03-30T00:51:29.589Z,3.77
2023-03-30T00:53:36.645Z,2.80
2023-03-30T00:55:43.589Z,3.93
2023-03-30T00:57:46.787Z,6.90
2023-03-30T00:59:52.163Z,6.10
2023-03-30T01:01:55.288Z,5.40
2023-03-30T01:04:02.125Z,4.77
2023-03-30T01:06:08.249Z,5.57
2023-03-30T01:08:16.663Z,2.90
2023-03-30T01:10:22.112Z,5.30
2023-03-30T01:12:24.969Z,4.40
2023-03-30T01:14:27.980Z,5.80
2023-03-30T01:16:37.328Z,3.20
2023-03-30T01:18:54.721Z,3.87
2023-03-30T01:21:25.592Z,6.40
2023-03-30T01:24:08.591Z,5.23
2023-03-30T01:26:43.809Z,2.70
2023-03-30T01:28:50.648Z,4.07
2023-03-30T01:31:13.239Z,3.07
2023-03-30T01:33:50.242Z,4.63
2023-03-30T01:36:28.837Z,3.67
2023-03-30T01:39:14.076Z,4.50
2023-03-30T01:41:23.814Z,2.97
2023-03-30T01:43:36.101Z,4.70
2023-03-30T01:45:44.799Z,6.00
2023-03-30T01:47:54.016Z,3.60
2023-03-30T01:50:01.767Z,5.57
2023-03-30T01:52:12.005Z,5.40
2023-03-30T01:54:21.737Z,4.43
2023-03-30T01:56:27.401Z,2.73
2023-03-30T01:58:34.527Z,3.77
2023-03-30T02:00:40.940Z,4.03
2023-03-30T02:02:48.821Z,5.47
2023-03-30T02:04:54.660Z,3.87
2023-03-30T02:07:02.719Z,4.97
2023-03-30T02:09:07.790Z,4.27
2023-03-30T02:11:12.706Z,4.57
2023-03-30T02:13:17.070Z,5.80
2023-03-30T02:15:20.700Z,3.97
2023-03-30T02:17:24.760Z,3.57
2023-03-30T02:19:28.190Z,5.43
2023-03-30T02:21:32.884Z,5.13
2023-03-30T02:23:39.453Z,4.27
2023-03-30T02:25:42.649Z,3.43
2023-03-30T02:27:46.820Z,4.73
2023-03-30T02:29:49.946Z,4.37
2023-03-30T02:31:58.014Z,3.37
2023-03-30T02:34:10.795Z,4.53
2023-03-30T02:36:27.393Z,3.33
2023-03-30T02:38:54.628Z,6.53
2023-03-30T02:41:08.756Z,6.60
2023-03-30T02:43:32.503Z,5.73
2023-03-30T02:45:45.589Z,5.70
2023-03-30T02:47:59.127Z,4.37
2023-03-30T02:50:06.056Z,4.07
2023-03-30T02:52:17.757Z,4.70
2023-03-30T02:54:32.653Z,7.40
2023-03-30T02:56:43.993Z,6.07
2023-03-30T02:58:54.121Z,5.53
2023-03-30T03:01:02.295Z,3.30
2023-03-30T03:03:12.134Z,5.37
2023-03-30T03:05:16.707Z,4.87
2023-03-30T03:07:20.378Z,3.87
2023-03-30T03:09:25.017Z,4.43
2023-03-30T03:11:28.132Z,3.20
2023-03-30T03:13:30.945Z,3.60
2023-03-30T03:15:35.538Z,4.00
2023-03-30T03:17:39.096Z,4.00
2023-03-30T03:19:41.905Z,5.43
2023-03-30T03:21:45.004Z,5.10
2023-03-30T03:23:48.592Z,5.13
2023-03-30T03:25:51.485Z,5.10
2023-03-30T03:27:54.259Z,2.33
2023-03-30T03:29:57.731Z,4.20
2023-03-30T03:32:01.983Z,3.13
2023-03-30T03:34:04.989Z,3.50
2023-03-30T03:36:08.996Z,6.97
2023-03-30T03:38:11.808Z,4.47
2023-03-30T03:40:14.781Z,3.70
2023-03-30T03:42:17.634Z,5.93
2023-03-30T03:44:20.562Z,4.93
2023-03-30T03:46:23.367Z,5.77
2023-03-30T03:48:27.865Z,5.47
2023-03-30T03:50:31.314Z,4.63
2023-03-30T03:52:34.129Z,5.13
2023-03-30T03:54:36.916Z,6.77
2023-03-30T03:56:39.900Z,4.67
2023-03-30T03:58:42.680Z,4.53
2023-03-30T04:00:46.379Z,4.70
2023-03-30T04:02:49.341Z,4.43
2023-03-30T04:04:53.715Z,7.50
2023-03-30T04:06:57.017Z,5.80
2023-03-30T04:09:01.101Z,4.33
2023-03-30T04:11:08.028Z,6.97
2023-03-30T04:13:11.491Z,10.17
2023-03-30T04:15:14.574Z,6.03
2023-03-30T04:17:17.440Z,6.07
2023-03-30T04:19:20.442Z,5.00
2023-03-30T04:21:25.329Z,5.27
2023-03-30T04:23:31.254Z,6.17
2023-03-30T04:25:34.083Z,4.80
2023-03-30T04:27:37.805Z,5.83
2023-03-30T04:29:40.781Z,6.43
2023-03-30T04:31:46.911Z,6.23
2023-03-30T04:33:53.356Z,5.37
2023-03-30T04:35:56.724Z,5.10
2023-03-30T04:38:02.190Z,8.87
2023-03-30T04:40:09.442Z,6.70
2023-03-30T04:42:14.189Z,6.13
2023-03-30T04:44:20.395Z,7.90
2023-03-30T04:46:23.240Z,5.10
2023-03-30T04:48:26.025Z,5.23
2023-03-30T04:50:28.846Z,6.77
2023-03-30T04:52:31.744Z,7.97
2023-03-30T04:54:36.033Z,6.07
2023-03-30T04:56:38.928Z,9.50
2023-03-30T04:58:41.911Z,7.43
2023-03-30T05:00:44.736Z,9.47
2023-03-30T05:02:47.792Z,4.67
2023-03-30T05:04:50.744Z,7.93
2023-03-30T05:06:53.716Z,6.50
2023-03-30T05:08:56.616Z,5.03
2023-03-30T05:11:02.537Z,9.33
2023-03-30T05:13:05.429Z,9.37
2023-03-30T05:15:09.355Z,7.80
2023-03-30T05:17:12.211Z,8.50
2023-03-30T05:19:15.072Z,4.13
2023-03-30T05:21:17.961Z,6.10
2023-03-30T05:23:21.473Z,8.23
2023-03-30T05:25:24.308Z,8.03
2023-03-30T05:27:28.430Z,9.67
2023-03-30T05:29:31.411Z,7.73
2023-03-30T05:31:34.364Z,10.27
2023-03-30T05:33:37.467Z,7.47
2023-03-30T05:35:40.889Z,7.43
2023-03-30T05:37:43.871Z,11.73
2023-03-30T05:39:48.064Z,5.70
2023-03-30T05:41:50.887Z,9.60
2023-03-30T05:43:54.968Z,8.80
2023-03-30T05:45:57.878Z,6.73
2023-03-30T05:48:00.975Z,7.27
2023-03-30T05:50:08.207Z,7.00
2023-03-30T05:52:11.565Z,5.57
2023-03-30T05:54:15.248Z,5.93
2023-03-30T05:56:18.143Z,5.77
2023-03-30T05:58:21.087Z,7.03
2023-03-30T06:00:25.873Z,7.37
2023-03-30T06:02:29.846Z,9.13
2023-03-30T06:04:32.718Z,10.33
2023-03-30T06:06:35.783Z,9.97
2023-03-30T06:08:38.621Z,9.43
2023-03-30T06:10:41.687Z,7.50
2023-03-30T06:12:44.572Z,10.17
2023-03-30T06:14:47.441Z,10.83
2023-03-30T06:16:52.040Z,8.80
2023-03-30T06:18:54.887Z,6.40
2023-03-30T06:20:58.042Z,10.87
2023-03-30T06:23:00.895Z,11.43
2023-03-30T06:25:04.068Z,7.03
2023-03-30T06:27:07.381Z,6.83
2023-03-30T06:29:10.392Z,5.17
2023-03-30T06:31:13.442Z,9.87
2023-03-30T06:33:18.281Z,9.20
2023-03-30T06:35:21.262Z,9.03
2023-03-30T06:37:24.036Z,7.77
2023-03-30T06:39:26.979Z,10.27
2023-03-30T06:41:29.732Z,6.63
2023-03-30T06:43:32.726Z,6.87
2023-03-30T06:45:35.789Z,6.47
2023-03-30T06:47:39.132Z,5.57
2023-03-30T06:49:43.326Z,7.97
2023-03-30T06:51:47.171Z,5.40
2023-03-30T06:53:50.336Z,9.37
2023-03-30T06:55:55.071Z,6.43
2023-03-30T06:57:57.845Z,9.03
2023-03-30T07:00:00.617Z,8.47
2023-03-30T07:02:03.629Z,9.33
2023-03-30T07:04:07.367Z,7.77
2023-03-30T07:06:12.516Z,7.90
2023-03-30T07:08:15.736Z,8.97
2023-03-30T07:10:18.799Z,10.80
2023-03-30T07:12:21.604Z,8.93
2023-03-30T07:14:24.396Z,5.70
2023-03-30T07:16:27.260Z,7.10
2023-03-30T07:18:30.068Z,6.70
2023-03-30T07:20:32.976Z,7.53
2023-03-30T07:22:37.185Z,7.73
2023-03-30T07:24:40.945Z,7.43
2023-03-30T07:26:43.908Z,5.20
2023-03-30T07:28:46.735Z,11.63
2023-03-30T07:30:49.597Z,9.73
2023-03-30T07:32:52.512Z,8.40
2023-03-30T07:34:55.671Z,7.33
2023-03-30T07:36:58.662Z,7.17
2023-03-30T07:39:03.101Z,4.47
2023-03-30T07:41:11.209Z,6.60
2023-03-30T07:43:13.951Z,7.23
2023-03-30T07:45:17.114Z,5.73
2023-03-30T07:47:20.441Z,9.40
2023-03-30T07:49:24.889Z,6.93
2023-03-30T07:51:28.359Z,10.00
2023-03-30T07:53:31.289Z,5.70
2023-03-30T07:55:35.971Z,11.80
2023-03-30T07:57:38.793Z,7.73
2023-03-30T07:59:41.628Z,8.70
2023-03-30T08:01:45.071Z,7.47
2023-03-30T08:03:49.233Z,6.83
2023-03-30T08:05:55.939Z,7.43
2023-03-30T08:07:58.889Z,8.20
2023-03-30T08:10:01.713Z,5.80
2023-03-30T08:12:06.055Z,7.63
2023-03-30T08:14:09.419Z,9.63
2023-03-30T08:16:12.896Z,7.13
2023-03-30T08:18:15.988Z,9.57
2023-03-30T08:20:19.295Z,9.73
2023-03-30T08:22:22.351Z,7.43
2023-03-30T08:24:25.101Z,7.73
2023-03-30T08:26:28.795Z,8.37
2023-03-30T08:28:32.930Z,8.47
2023-03-30T08:30:36.077Z,7.40
2023-03-30T08:32:38.973Z,9.43
2023-03-30T08:34:41.773Z,9.97
2023-03-30T08:36:44.705Z,9.00
2023-03-30T08:38:47.552Z,7.77
2023-03-30T08:40:51.454Z,12.87
2023-03-30T08:43:18.430Z,11.30
2023-03-30T08:45:22.605Z,11.57
2023-03-30T08:47:33.788Z,8.53
2023-03-30T08:49:42.491Z,11.50
2023-03-30T08:51:46.968Z,8.83
2023-03-30T08:53:53.132Z,6.53
2023-03-30T08:56:02.579Z,8.30
2023-03-30T08:58:14.025Z,11.17
2023-03-30T09:00:27.902Z,13.73
2023-03-30T09:02:34.283Z,9.27
2023-03-30T09:04:48.451Z,11.77
2023-03-30T09:06:53.763Z,9.23
2023-03-30T09:08:57.278Z,7.80
2023-03-30T09:11:03.204Z,10.53
2023-03-30T09:13:07.418Z,10.00
2023-03-30T09:15:17.441Z,13.83
2023-03-30T09:17:26.612Z,8.40
2023-03-30T09:19:36.424Z,8.20
2023-03-30T09:21:40.401Z,11.43
2023-03-30T09:23:43.396Z,11.97
2023-03-30T09:25:53.439Z,11.03
2023-03-30T09:28:04.133Z,9.37
2023-03-30T09:30:19.254Z,11.70
2023-03-30T09:32:32.252Z,9.40
2023-03-30T09:34:42.031Z,12.07
2023-03-30T09:36:53.538Z,8.03
2023-03-30T09:38:56.262Z,13.43
2023-03-30T09:41:08.671Z,9.87
2023-03-30T09:43:17.801Z,9.60
2023-03-30T09:45:24.269Z,7.73
2023-03-30T09:47:29.897Z,10.93
2023-03-30T09:49:39.652Z,9.63
2023-03-30T09:51:56.196Z,9.27
2023-03-30T09:54:01.674Z,11.97
2023-03-30T09:56:10.173Z,10.00
2023-03-30T09:58:17.779Z,9.60
2023-03-30T10:00:29.270Z,11.00
2023-03-30T10:02:33.974Z,7.80
2023-03-30T10:05:05.256Z,8.57
2023-03-30T10:07:22.796Z,9.50
2023-03-30T10:09:25.597Z,9.33
2023-03-30T10:11:36.826Z,7.50
2023-03-30T10:13:42.845Z,6.87
2023-03-30T10:15:49.839Z,8.57
2023-03-30T10:17:56.484Z,8.83
2023-03-30T10:20:16.020Z,12.40
2023-03-30T10:22:22.257Z,11.50
2023-03-30T10:24:26.548Z,9.53
2023-03-30T10:26:31.909Z,9.70
2023-03-30T10:28:36.357Z,11.03
2023-03-30T10:30:39.364Z,11.93
2023-03-30T10:32:46.595Z,10.67
2023-03-30T10:34:54.989Z,11.13
2023-03-30T10:36:58.684Z,10.43
2023-03-30T10:39:09.087Z,8.23
2023-03-30T10:41:16.454Z,7.83
2023-03-30T10:43:23.811Z,6.87
2023-03-30T10:45:33.465Z,9.60
2023-03-30T10:48:00.293Z,7.87
2023-03-30T10:50:14.800Z,6.93
2023-03-30T10:52:23.675Z,10.20
2023-03-30T10:54:34.274Z,4.30
2023-03-30T10:56:42.821Z,7.90
2023-03-30T10:59:03.204Z,8.70
2023-03-30T11:01:14.276Z,7.27
2023-03-30T11:03:22.982Z,6.57
2023-03-30T11:05:32.783Z,8.47
2023-03-30T11:07:44.327Z,5.90
2023-03-30T11:09:54.446Z,8.40
2023-03-30T11:12:01.609Z,6.40
2023-03-30T11:14:09.245Z,6.20
2023-03-30T11:16:17.325Z,6.00
2023-03-30T11:18:24.886Z,5.87
2023-03-30T11:20:32.519Z,7.70
2023-03-30T11:22:42.046Z,4.57
2023-03-30T11:24:50.141Z,8.30
2023-03-30T11:26:58.934Z,9.07
2023-03-30T11:29:17.164Z,6.57
2023-03-30T11:31:33.813Z,4.23
2023-03-30T11:33:42.387Z,5.13
2023-03-30T11:35:51.541Z,6.37
2023-03-30T11:37:58.665Z,6.60
2023-03-30T11:40:14.384Z,6.10
2023-03-30T11:42:23.380Z,3.33
2023-03-30T11:44:27.554Z,5.53
2023-03-30T11:46:40.108Z,6.90
2023-03-30T11:49:11.308Z,5.60
2023-03-30T11:51:37.114Z,6.07
2023-03-30T11:53:55.394Z,5.13
2023-03-30T11:56:07.859Z,5.57
2023-03-30T11:58:21.696Z,4.30
2023-03-30T12:00:34.583Z,2.13
2023-03-30T12:02:45.452Z,3.73
2023-03-30T12:04:52.990Z,2.23
2023-03-30T12:06:59.988Z,2.60
2023-03-30T12:09:21.817Z,2.43
2023-03-30T12:11:32.713Z,3.70
2023-03-30T12:13:44.781Z,2.30
2023-03-30T12:15:58.274Z,4.57
2023-03-30T12:18:06.579Z,5.17
2023-03-30T12:20:19.729Z,6.10
2023-03-30T12:22:28.247Z,4.13
2023-03-30T12:24:40.133Z,3.80
2023-03-30T12:26:51.721Z,5.13
2023-03-30T12:29:52.596Z,3.77
2023-03-30T12:32:04.116Z,6.17
2023-03-30T12:34:08.337Z,6.20
2023-03-30T12:36:34.099Z,7.10
2023-03-30T12:38:46.212Z,5.37
2023-03-30T12:41:06.086Z,2.50
2023-03-30T12:43:18.309Z,4.50
2023-03-30T12:45:27.952Z,4.47
2023-03-30T12:47:53.944Z,4.53
2023-03-30T12:50:10.949Z,6.80
2023-03-30T12:52:17.996Z,3.90
2023-03-30T12:55:00.308Z,7.03
2023-03-30T12:57:14.145Z,4.70
2023-03-30T12:59:35.649Z,6.37
2023-03-30T13:01:52.029Z,8.80
2023-03-30T13:03:56.703Z,5.37
2023-03-30T13:06:02.571Z,4.03
2023-03-30T13:08:07.402Z,5.83
2023-03-30T13:10:37.468Z,11.27
2023-03-30T13:12:41.491Z,3.63
2023-03-30T13:14:49.503Z,6.20
2023-03-30T13:17:12.356Z,6.50
2023-03-30T13:19:22.836Z,4.97
2023-03-30T13:21:26.714Z,4.37
2023-03-30T13:23:34.058Z,4.33
2023-03-30T13:25:46.526Z,5.77
2023-03-30T13:27:52.555Z,3.80
2023-03-30T13:29:57.848Z,5.53
2023-03-30T13:32:19.491Z,8.93
2023-03-30T13:34:34.828Z,4.10
2023-03-30T13:36:42.638Z,3.00
2023-03-30T13:39:02.521Z,3.27
2023-03-30T13:41:24.996Z,2.57
2023-03-30T13:43:44.044Z,4.53
2023-03-30T13:45:53.748Z,3.03
2023-03-30T13:48:08.177Z,3.40
2023-03-30T13:50:26.148Z,2.37
2023-03-30T13:52:32.895Z,1.97
2023-03-30T13:54:36.661Z,4.10
2023-03-30T13:56:45.172Z,3.93
2023-03-30T13:58:52.543Z,1.30
2023-03-30T14:00:58.036Z,2.67
2023-03-30T14:03:01.666Z,2.37
2023-03-30T14:05:15.922Z,3.57
2023-03-30T14:07:22.063Z,8.80
2023-03-30T14:09:27.650Z,3.00
2023-03-30T14:11:36.172Z,4.03
2023-03-30T14:13:40.413Z,3.67
2023-03-30T14:15:43.454Z,2.73
2023-03-30T14:17:52.851Z,2.67
2023-03-30T14:20:09.333Z,5.87
2023-03-30T14:22:18.595Z,4.37
2023-03-30T14:24:29.100Z,5.23
2023-03-30T14:26:32.139Z,3.63
2023-03-30T14:28:37.939Z,1.67
2023-03-30T14:30:50.080Z,3.37
2023-03-30T14:33:07.816Z,3.03
2023-03-30T14:35:16.119Z,3.23
2023-03-30T14:37:21.194Z,5.23
2023-03-30T14:39:24.992Z,3.90
2023-03-30T14:41:29.357Z,4.53
2023-03-30T14:43:32.979Z,7.57
2023-03-30T14:45:38.132Z,4.40
2023-03-30T14:47:42.382Z,5.43
2023-03-30T14:49:47.476Z,4.97
2023-03-30T14:51:51.910Z,4.37
2023-03-30T14:53:55.903Z,4.57
2023-03-30T14:56:01.908Z,3.67
2023-03-30T14:58:06.291Z,3.90
2023-03-30T15:00:17.889Z,5.17
2023-03-30T15:02:22.539Z,6.43
2023-03-30T15:04:31.053Z,4.50
2023-03-30T15:06:33.998Z,3.03
2023-03-30T15:08:40.344Z,5.23
2023-03-30T15:10:46.926Z,6.63
2023-03-30T15:12:50.865Z,4.60
2023-03-30T15:14:57.651Z,5.13
2023-03-30T15:17:00.803Z,3.47
2023-03-30T15:19:06.605Z,3.70
2023-03-30T15:21:13.434Z,8.03
2023-03-30T15:23:17.443Z,4.90
2023-03-30T15:25:22.669Z,3.17
2023-03-30T15:27:25.742Z,5.23
2023-03-30T15:29:28.756Z,4.90
2023-03-30T15:31:31.737Z,7.30
2023-03-30T15:33:37.004Z,6.37
2023-03-30T15:35:40.039Z,4.97
2023-03-30T15:37:55.051Z,5.53
2023-03-30T15:39:57.877Z,4.93
2023-03-30T15:42:04.238Z,20.50
2023-03-30T15:44:12.273Z,15.83
2023-03-30T15:46:16.813Z,16.53
2023-03-30T15:48:23.390Z,11.17
2023-03-30T15:50:27.623Z,18.43
2023-03-30T15:52:35.565Z,8.13
2023-03-30T15:54:42.194Z,6.13
2023-03-30T15:56:49.755Z,6.97
2023-03-30T15:58:52.745Z,7.07
2023-03-30T16:00:56.592Z,3.87
2023-03-30T16:03:02.011Z,2.70
2023-03-30T16:05:07.655Z,3.47
2023-03-30T16:07:16.771Z,3.07
2023-03-30T16:09:19.559Z,3.53
2023-03-30T16:11:23.918Z,4.70
2023-03-30T16:13:27.124Z,2.10
2023-03-30T16:15:32.182Z,1.97
2023-03-30T16:17:36.108Z,2.30
2023-03-30T16:19:38.907Z,1.30
2023-03-30T16:21:44.679Z,2.47
2023-03-30T16:23:48.147Z,2.13
2023-03-30T16:25:50.951Z,2.03
2023-03-30T16:27:55.740Z,1.53
2023-03-30T16:29:58.569Z,3.30
2023-03-30T16:32:04.486Z,2.17
2023-03-30T16:34:07.267Z,2.23
2023-03-30T16:36:14.844Z,2.27
2023-03-30T16:38:18.682Z,2.53
2023-03-30T16:40:29.178Z,2.97
2023-03-30T16:42:31.980Z,3.20
2023-03-30T16:44:36.767Z,2.60
2023-03-30T16:46:42.038Z,2.57
2023-03-30T16:48:46.242Z,3.57
2023-03-30T16:50:52.911Z,3.07
2023-03-30T16:52:56.130Z,1.80
2023-03-30T16:54:58.924Z,6.23
2023-03-30T16:57:02.411Z,2.83
2023-03-30T16:59:05.407Z,3.93
2023-03-30T17:01:13.165Z,2.60
2023-03-30T17:03:16.661Z,2.53
2023-03-30T17:05:19.591Z,3.30
2023-03-30T17:07:22.437Z,4.03
2023-03-30T17:09:25.525Z,3.37
2023-03-30T17:11:28.269Z,12.23
2023-03-30T17:13:32.060Z,25.53
2023-03-30T17:15:38.429Z,19.03
2023-03-30T17:17:42.906Z,5.70
2023-03-30T17:19:45.858Z,23.20
2023-03-30T17:21:48.650Z,14.87
2023-03-30T17:23:51.512Z,5.27
2023-03-30T17:25:55.471Z,3.97
2023-03-30T17:27:59.193Z,9.70
2023-03-30T17:30:02.033Z,16.93
2023-03-30T17:32:12.345Z,6.33
2023-03-30T17:34:16.388Z,3.07
2023-03-30T17:36:20.432Z,4.43
2023-03-30T17:38:23.209Z,7.03
2023-03-30T17:40:28.227Z,7.70
2023-03-30T17:42:30.956Z,5.40
2023-03-30T17:44:33.915Z,3.07
2023-03-30T17:46:37.112Z,4.40
2023-03-30T17:48:39.985Z,5.03
2023-03-30T17:50:46.263Z,4.07
2023-03-30T17:52:49.450Z,4.37
2023-03-30T17:54:52.217Z,3.27
2023-03-30T17:56:57.601Z,5.93
2023-03-30T17:59:00.492Z,5.27
2023-03-30T18:01:05.753Z,7.03
2023-03-30T18:03:08.702Z,5.43
2023-03-30T18:05:11.878Z,6.33
2023-03-30T18:07:16.547Z,5.13
2023-03-30T18:09:19.560Z,10.43
2023-03-30T18:11:22.442Z,4.23
2023-03-30T18:13:26.340Z,9.60
2023-03-30T18:15:29.518Z,7.43
2023-03-30T18:17:32.311Z,5.10
2023-03-30T18:19:35.074Z,10.97
2023-03-30T18:21:38.106Z,7.77
2023-03-30T18:23:42.217Z,5.83
2023-03-30T18:25:45.515Z,3.43
2023-03-30T18:27:49.295Z,3.30
2023-03-30T18:29:52.496Z,3.70
2023-03-30T18:31:55.278Z,3.77
2023-03-30T18:33:58.112Z,4.00
2023-03-30T18:36:05.162Z,3.37
2023-03-30T18:38:08.222Z,2.67
2023-03-30T18:40:19.348Z,1.87
2023-03-30T18:42:22.150Z,3.80
2023-03-30T18:44:25.098Z,4.20
2023-03-30T18:46:27.975Z,3.03
2023-03-30T18:48:31.565Z,4.53
2023-03-30T18:50:37.026Z,5.83
2023-03-30T18:52:40.125Z,4.60
2023-03-30T18:54:42.929Z,3.47
2023-03-30T18:56:47.840Z,5.47
2023-03-30T18:58:50.811Z,3.70
2023-03-30T19:00:54.870Z,4.67
2023-03-30T19:02:59.064Z,3.83
2023-03-30T19:05:02.059Z,3.20
2023-03-30T19:07:05.648Z,5.80
2023-03-30T19:09:10.000Z,6.00
2023-03-30T19:11:16.818Z,4.93
2023-03-30T19:13:22.289Z,7.03
2023-03-30T19:15:26.881Z,3.90
2023-03-30T19:17:29.670Z,4.50
2023-03-30T19:19:32.529Z,5.77
2023-03-30T19:21:35.300Z,4.57
2023-03-30T19:23:38.214Z,4.33
2023-03-30T19:25:41.625Z,5.23
2023-03-30T19:27:59.271Z,5.97
2023-03-30T19:30:08.234Z,6.90
2023-03-30T19:32:11.759Z,5.10
2023-03-30T19:34:14.600Z,7.63
2023-03-30T19:36:17.359Z,5.33
2023-03-30T19:38:20.463Z,4.43
2023-03-30T19:40:23.779Z,7.93
2023-03-30T19:42:29.476Z,5.83
2023-03-30T19:44:32.286Z,4.77
2023-03-30T19:46:37.928Z,4.30
2023-03-30T19:48:40.896Z,4.30
2023-03-30T19:50:43.751Z,6.97
2023-03-30T19:52:48.665Z,3.93
2023-03-30T19:54:52.355Z,5.50
2023-03-30T19:56:55.207Z,4.33
2023-03-30T19:58:58.784Z,6.13
2023-03-30T20:01:05.544Z,4.47
2023-03-30T20:03:11.873Z,5.40
2023-03-30T20:05:15.534Z,3.80
2023-03-30T20:07:20.003Z,3.77
2023-03-30T20:09:22.916Z,4.30
2023-03-30T20:11:25.975Z,4.23
2023-03-30T20:13:28.733Z,2.63
2023-03-30T20:15:32.428Z,3.43
2023-03-30T20:17:36.309Z,2.77
2023-03-30T20:19:42.584Z,3.10
2023-03-30T20:21:45.637Z,3.53
2023-03-30T20:23:48.752Z,2.20
2023-03-30T20:25:56.588Z,2.93
2023-03-30T20:27:59.379Z,2.80
2023-03-30T20:30:02.380Z,3.07
2023-03-30T20:32:05.641Z,2.80
2023-03-30T20:34:11.102Z,3.90
2023-03-30T20:36:15.475Z,2.13
2023-03-30T20:38:18.371Z,4.20
2023-03-30T20:40:21.403Z,2.67
2023-03-30T20:42:26.579Z,2.27
2023-03-30T20:44:32.226Z,2.50
2023-03-30T20:46:37.851Z,3.07
2023-03-30T20:48:41.519Z,2.00
2023-03-30T20:50:44.217Z,2.53
2023-03-30T20:52:48.564Z,1.70
2023-03-30T20:54:51.608Z,1.87
2023-03-30T20:56:54.709Z,3.83
2023-03-30T20:58:57.881Z,2.33
2023-03-30T21:01:01.495Z,3.10
2023-03-30T21:03:04.576Z,5.13
2023-03-30T21:05:08.460Z,3.80
2023-03-30T21:07:12.156Z,6.80
2023-03-30T21:09:17.693Z,2.30
2023-03-30T21:11:22.628Z,3.53
2023-03-30T21:13:25.550Z,3.87
2023-03-30T21:15:28.375Z,3.00
2023-03-30T21:17:31.393Z,3.80
2023-03-30T21:19:34.456Z,2.30
2023-03-30T21:21:37.802Z,4.80
2023-03-30T21:23:41.450Z,4.80
2023-03-30T21:25:46.468Z,4.27
2023-03-30T21:27:49.303Z,4.27
2023-03-30T21:29:52.129Z,5.20
2023-03-30T21:31:55.068Z,3.47
2023-03-30T21:33:57.964Z,4.20
2023-03-30T21:36:01.253Z,4.00
2023-03-30T21:38:04.280Z,2.07
2023-03-30T21:40:08.631Z,4.07
2023-03-30T21:42:13.146Z,4.73
2023-03-30T21:44:15.977Z,3.77
2023-03-30T21:46:21.147Z,3.57
2023-03-30T21:48:24.401Z,4.60
2023-03-30T21:50:27.167Z,6.97
2023-03-30T21:52:30.095Z,5.23
2023-03-30T21:54:32.890Z,3.70
2023-03-30T21:56:36.162Z,3.60
2023-03-30T21:58:40.377Z,5.53
2023-03-30T22:00:46.205Z,3.30
2023-03-30T22:02:49.061Z,4.37
2023-03-30T22:04:52.017Z,3.83
2023-03-30T22:06:54.824Z,3.33
2023-03-30T22:08:57.645Z,5.47
2023-03-30T22:11:02.732Z,3.37
2023-03-30T22:13:06.199Z,6.00
2023-03-30T22:15:11.449Z,4.43
2023-03-30T22:17:14.251Z,3.10
2023-03-30T22:19:18.631Z,4.47
2023-03-30T22:21:24.464Z,5.27
2023-03-30T22:23:27.447Z,5.20
2023-03-30T22:25:30.377Z,8.27
2023-03-30T22:27:34.137Z,4.17
2023-03-30T22:29:37.003Z,4.37
2023-03-30T22:31:41.529Z,3.23
2023-03-30T22:33:44.521Z,4.47
2023-03-30T22:35:49.095Z,4.63
2023-03-30T22:37:52.306Z,5.17
2023-03-30T22:39:55.281Z,4.57
2023-03-30T22:41:58.087Z,3.70
2023-03-30T22:44:01.037Z,3.80
2023-03-30T22:46:04.078Z,3.67
2023-03-30T22:48:08.529Z,5.67
2023-03-30T22:50:12.198Z,6.13
2023-03-30T22:52:15.036Z,4.93
2023-03-30T22:54:18.961Z,6.47
2023-03-30T22:56:21.838Z,6.13
2023-03-30T22:58:24.909Z,5.80
2023-03-30T23:00:27.978Z,4.63
2023-03-30T23:02:31.282Z,3.63
2023-03-30T23:04:36.176Z,6.70
2023-03-30T23:06:40.283Z,5.33
2023-03-30T23:08:44.016Z,4.60
2023-03-30T23:10:46.868Z,7.13
2023-03-30T23:12:49.938Z,7.23
2023-03-30T23:14:53.045Z,4.83
2023-03-30T23:16:57.728Z,5.07
2023-03-30T23:19:01.282Z,6.17
2023-03-30T23:21:06.778Z,6.43
2023-03-30T23:23:09.965Z,5.03
2023-03-30T23:25:15.945Z,4.80
2023-03-30T23:27:19.037Z,4.27
2023-03-30T23:29:21.910Z,3.63
2023-03-30T23:31:26.716Z,3.90
2023-03-30T23:33:29.778Z,7.27
2023-03-30T23:35:32.573Z,6.43
2023-03-30T23:37:37.290Z,4.37
2023-03-30T23:39:40.094Z,4.97
2023-03-30T23:41:43.659Z,8.03
2023-03-30T23:43:47.818Z,2.70
2023-03-30T23:45:51.007Z,5.67
2023-03-30T23:47:53.803Z,3.93
2023-03-30T23:49:57.008Z,5.27
2023-03-30T23:51:59.800Z,4.47
2023-03-30T23:54:09.506Z,5.90
2023-03-30T23:56:13.773Z,3.43
2023-03-30T23:58:17.900Z,4.57
